createdAt,value
2018-06-30T00:00:12.471Z,32.33
2018-06-30T00:01:12.766Z,32.21
2018-06-30T00:02:12.513Z,32.6
2018-06-30T00:03:12.539Z,32.41
2018-06-30T00:04:12.578Z,32.23
2018-06-30T00:05:12.719Z,32.31
2018-06-30T00:06:12.629Z,32.02
2018-06-30T00:07:12.649Z,32.31
2018-06-30T00:08:12.659Z,32.7
2018-06-30T00:09:12.749Z,32.6
2018-06-30T00:10:12.948Z,32.6
2018-06-30T00:11:12.735Z,32.6
2018-06-30T00:12:13.063Z,32.7
2018-06-30T00:13:12.796Z,32.51
2018-06-30T00:14:12.820Z,32.41
2018-06-30T00:15:12.889Z,32.41
2018-06-30T00:16:13.158Z,32.6
2018-06-30T00:17:12.917Z,33.09
2018-06-30T00:18:12.977Z,33.09
2018-06-30T00:19:12.967Z,32.89
2018-06-30T00:20:13.072Z,33.28
2018-06-30T00:21:13.201Z,33.28
2018-06-30T00:22:13.232Z,33.18
2018-06-30T00:23:12.989Z,33.18
2018-06-30T00:24:13.279Z,33.07
2018-06-30T00:25:13.309Z,32.97
2018-06-30T00:26:13.075Z,33.17
2018-06-30T00:27:13.356Z,33.45
2018-06-30T00:28:13.382Z,32.87
2018-06-30T00:29:13.409Z,33.55
2018-06-30T00:30:13.167Z,33.17
2018-06-30T00:31:13.201Z,33.26
2018-06-30T00:32:13.221Z,33.17
2018-06-30T00:33:13.243Z,33.55
2018-06-30T00:34:13.271Z,33.45
2018-06-30T00:35:13.563Z,33.54
2018-06-30T00:36:13.321Z,33.55
2018-06-30T00:37:13.349Z,33.94
2018-06-30T00:38:13.721Z,33.92
2018-06-30T00:39:13.665Z,33.83
2018-06-30T00:40:13.689Z,33.92
2018-06-30T00:41:13.722Z,33.63
2018-06-30T00:42:13.742Z,34.02
2018-06-30T00:43:13.771Z,33.83
2018-06-30T00:44:13.551Z,34.02
2018-06-30T00:45:13.819Z,33.73
2018-06-30T00:46:13.843Z,33.83
2018-06-30T00:47:13.872Z,33.92
2018-06-30T00:48:13.895Z,33.63
2018-06-30T00:49:13.920Z,34.02
2018-06-30T00:50:13.956Z,34.2
2018-06-30T00:51:13.976Z,34.02
2018-06-30T00:52:13.999Z,34.31
2018-06-30T00:53:13.753Z,34.12
2018-06-30T00:54:13.779Z,34.02
2018-06-30T00:55:14.074Z,33.72
2018-06-30T00:56:14.096Z,34.1
2018-06-30T00:57:14.121Z,34.48
2018-06-30T00:58:14.147Z,34.48
2018-06-30T00:59:14.178Z,34.48
2018-06-30T01:00:14.197Z,34.58
2018-06-30T01:01:14.222Z,34.39
2018-06-30T01:02:14.246Z,34.58
2018-06-30T01:03:14.273Z,34.1
2018-06-30T01:04:14.035Z,34.48
2018-06-30T01:05:14.324Z,34.39
2018-06-30T01:06:14.354Z,34.2
2018-06-30T01:07:14.112Z,34.39
2018-06-30T01:08:14.400Z,34.1
2018-06-30T01:09:14.423Z,34.97
2018-06-30T01:10:14.449Z,34.97
2018-06-30T01:11:14.477Z,34.68
2018-06-30T01:12:14.503Z,34.97
2018-06-30T01:13:14.527Z,34.86
2018-06-30T01:14:14.549Z,34.86
2018-06-30T01:15:14.571Z,34.66
2018-06-30T01:16:14.335Z,34.95
2018-06-30T01:17:14.625Z,35.14
2018-06-30T01:18:14.653Z,35.05
2018-06-30T01:19:14.675Z,35.14
2018-06-30T01:20:14.712Z,35.14
2018-06-30T01:21:14.723Z,35.14
2018-06-30T01:22:14.748Z,34.86
2018-06-30T01:23:14.775Z,35.14
2018-06-30T01:24:14.804Z,35.14
2018-06-30T01:25:14.829Z,35.63
2018-06-30T01:26:14.853Z,35.34
2018-06-30T01:27:14.607Z,35.53
2018-06-30T01:28:14.900Z,35.52
2018-06-30T01:29:14.925Z,35.53
2018-06-30T01:30:14.953Z,35.44
2018-06-30T01:31:14.971Z,35.44
2018-06-30T01:32:15.003Z,35.63
2018-06-30T01:33:15.019Z,35.52
2018-06-30T01:34:14.780Z,35.32
2018-06-30T01:35:14.808Z,35.42
2018-06-30T01:36:15.098Z,35.13
2018-06-30T01:37:15.121Z,35.9
2018-06-30T01:38:15.151Z,35.71
2018-06-30T01:39:15.172Z,35.8
2018-06-30T01:40:15.193Z,35.71
2018-06-30T01:41:15.222Z,35.71
2018-06-30T01:42:15.014Z,35.71
2018-06-30T01:43:15.274Z,35.61
2018-06-30T01:44:15.294Z,35.52
2018-06-30T01:45:15.323Z,36
2018-06-30T01:46:15.077Z,36.09
2018-06-30T01:47:15.367Z,36.19
2018-06-30T01:48:15.391Z,36.29
2018-06-30T01:49:15.149Z,36.38
2018-06-30T01:50:15.443Z,36.46
2018-06-30T01:51:15.199Z,36.09
2018-06-30T01:52:15.223Z,36.36
2018-06-30T01:53:15.515Z,36.38
2018-06-30T01:54:15.543Z,36.27
2018-06-30T01:55:15.565Z,36.65
2018-06-30T01:56:15.591Z,36.46
2018-06-30T01:57:15.623Z,36.46
2018-06-30T01:58:15.638Z,36.17
2018-06-30T01:59:15.665Z,36.65
2018-06-30T02:00:15.690Z,36.85
2018-06-30T02:01:15.711Z,36.75
2018-06-30T02:02:15.745Z,36.94
2018-06-30T02:03:15.765Z,36.55
2018-06-30T02:04:15.527Z,36.94
2018-06-30T02:05:15.811Z,35.98
2018-06-30T02:06:15.837Z,36.85
2018-06-30T02:07:15.858Z,36.85
2018-06-30T02:08:15.878Z,36.85
2018-06-30T02:09:15.905Z,36.75
2018-06-30T02:10:15.929Z,37.04
2018-06-30T02:11:15.689Z,37.04
2018-06-30T02:12:15.976Z,36.85
2018-06-30T02:13:16.002Z,36.94
2018-06-30T02:14:15.760Z,36.75
2018-06-30T02:15:16.055Z,36.85
2018-06-30T02:16:15.807Z,36.85
2018-06-30T02:17:16.099Z,36.85
2018-06-30T02:18:16.123Z,36.54
2018-06-30T02:19:16.149Z,37.31
2018-06-30T02:20:16.180Z,37.21
2018-06-30T02:21:16.199Z,37.12
2018-06-30T02:22:16.219Z,37.31
2018-06-30T02:23:15.976Z,37.31
2018-06-30T02:24:16.268Z,37.12
2018-06-30T02:25:16.294Z,37.31
2018-06-30T02:26:16.313Z,37.5
2018-06-30T02:27:16.343Z,37.79
2018-06-30T02:28:16.362Z,37.41
2018-06-30T02:29:16.389Z,37.6
2018-06-30T02:30:16.417Z,37.6
2018-06-30T02:31:16.442Z,37.7
2018-06-30T02:32:16.457Z,37.7
2018-06-30T02:33:16.480Z,37.6
2018-06-30T02:34:16.508Z,38.08
2018-06-30T02:35:16.264Z,38.08
2018-06-30T02:36:16.287Z,37.6
2018-06-30T02:37:16.321Z,38.08
2018-06-30T02:38:16.607Z,37.98
2018-06-30T02:39:16.687Z,37.98
2018-06-30T02:40:16.650Z,37.87
2018-06-30T02:41:16.672Z,37.7
2018-06-30T02:42:16.699Z,37.79
2018-06-30T02:43:16.727Z,37.77
2018-06-30T02:44:16.747Z,37.68
2018-06-30T02:45:16.770Z,37.79
2018-06-30T02:46:16.528Z,37.77
2018-06-30T02:47:16.554Z,38.06
2018-06-30T02:48:16.575Z,38.16
2018-06-30T02:49:16.600Z,38.26
2018-06-30T02:50:16.888Z,38.26
2018-06-30T02:51:16.912Z,38.35
2018-06-30T02:52:16.936Z,37.68
2018-06-30T02:53:16.694Z,38.16
2018-06-30T02:54:16.985Z,38.16
2018-06-30T02:55:17.009Z,38.35
2018-06-30T02:56:17.030Z,38.26
2018-06-30T02:57:17.056Z,38.35
2018-06-30T02:58:17.077Z,38.45
2018-06-30T02:59:16.835Z,38.54
2018-06-30T03:00:16.861Z,38.45
2018-06-30T03:01:16.884Z,38.54
2018-06-30T03:02:17.174Z,38.45
2018-06-30T03:03:16.933Z,38.64
2018-06-30T03:04:17.224Z,38.74
2018-06-30T03:05:17.246Z,38.35
2018-06-30T03:06:17.278Z,38.74
2018-06-30T03:07:17.030Z,38.54
2018-06-30T03:08:17.315Z,38.74
2018-06-30T03:09:17.072Z,38.64
2018-06-30T03:10:17.362Z,38.74
2018-06-30T03:11:17.123Z,38.74
2018-06-30T03:12:17.416Z,38.74
2018-06-30T03:13:17.434Z,38.45
2018-06-30T03:14:17.466Z,38.74
2018-06-30T03:15:17.487Z,38.74
2018-06-30T03:16:17.505Z,38.54
2018-06-30T03:17:17.527Z,38.45
2018-06-30T03:18:17.555Z,38.64
2018-06-30T03:19:17.321Z,38.54
2018-06-30T03:20:17.599Z,38.64
2018-06-30T03:21:17.624Z,38.64
2018-06-30T03:22:17.695Z,38.74
2018-06-30T03:23:17.665Z,38.83
2018-06-30T03:24:17.692Z,38.83
2018-06-30T03:25:17.709Z,38.83
2018-06-30T03:26:17.738Z,38.93
2018-06-30T03:27:17.815Z,38.91
2018-06-30T03:28:17.515Z,38.93
2018-06-30T03:29:17.810Z,38.83
2018-06-30T03:30:17.833Z,38.83
2018-06-30T03:31:17.859Z,39.01
2018-06-30T03:32:17.610Z,38.83
2018-06-30T03:33:17.900Z,38.91
2018-06-30T03:34:17.926Z,39.01
2018-06-30T03:35:17.678Z,38.93
2018-06-30T03:36:17.971Z,38.91
2018-06-30T03:37:17.726Z,39.11
2018-06-30T03:38:17.750Z,39.11
2018-06-30T03:39:18.040Z,39.03
2018-06-30T03:40:18.069Z,39.11
2018-06-30T03:41:18.090Z,39.11
2018-06-30T03:42:18.117Z,38.72
2018-06-30T03:43:17.865Z,39.01
2018-06-30T03:44:17.897Z,39.01
2018-06-30T03:45:18.179Z,39.2
2018-06-30T03:46:18.343Z,39.39
2018-06-30T03:47:18.229Z,39.29
2018-06-30T03:48:18.249Z,39.2
2018-06-30T03:49:18.273Z,39.29
2018-06-30T03:50:18.297Z,39.29
2018-06-30T03:51:18.322Z,39.29
2018-06-30T03:52:18.085Z,39.39
2018-06-30T03:53:18.367Z,39.59
2018-06-30T03:54:18.394Z,39.59
2018-06-30T03:55:18.417Z,39.49
2018-06-30T03:56:18.437Z,39.59
2018-06-30T03:57:18.460Z,39.59
2018-06-30T03:58:18.492Z,39.49
2018-06-30T03:59:18.507Z,39.59
2018-06-30T04:00:18.529Z,39.59
2018-06-30T04:01:18.553Z,39.59
2018-06-30T04:02:18.582Z,39.68
2018-06-30T04:03:18.604Z,39.56
2018-06-30T04:04:18.623Z,39.56
2018-06-30T04:05:18.651Z,39.59
2018-06-30T04:06:18.411Z,39.47
2018-06-30T04:07:18.690Z,39.95
2018-06-30T04:08:18.712Z,39.76
2018-06-30T04:09:18.737Z,39.86
2018-06-30T04:10:18.499Z,39.76
2018-06-30T04:11:18.782Z,39.95
2018-06-30T04:12:18.803Z,39.86
2018-06-30T04:13:18.829Z,39.56
2018-06-30T04:14:18.854Z,39.76
2018-06-30T04:15:18.617Z,40.05
2018-06-30T04:16:18.633Z,39.76
2018-06-30T04:17:18.925Z,40.24
2018-06-30T04:18:18.946Z,40.14
2018-06-30T04:19:18.701Z,40.24
2018-06-30T04:20:18.994Z,40.34
2018-06-30T04:21:19.014Z,40.05
2018-06-30T04:22:19.040Z,40.14
2018-06-30T04:23:19.062Z,40.24
2018-06-30T04:24:19.083Z,40.24
2018-06-30T04:25:19.103Z,40.14
2018-06-30T04:26:19.128Z,40.24
2018-06-30T04:27:19.155Z,40.53
2018-06-30T04:28:19.176Z,40.81
2018-06-30T04:29:19.193Z,40.63
2018-06-30T04:30:19.219Z,40.34
2018-06-30T04:31:19.242Z,40.34
2018-06-30T04:32:19.265Z,40.63
2018-06-30T04:33:19.289Z,40.8
2018-06-30T04:34:19.313Z,40.43
2018-06-30T04:35:19.074Z,40.43
2018-06-30T04:36:19.091Z,40.53
2018-06-30T04:37:19.382Z,40.51
2018-06-30T04:38:19.405Z,40.41
2018-06-30T04:39:19.434Z,40.53
2018-06-30T04:40:19.446Z,40.43
2018-06-30T04:41:19.473Z,40.51
2018-06-30T04:42:19.499Z,40.51
2018-06-30T04:43:19.249Z,40.89
2018-06-30T04:44:19.544Z,40.51
2018-06-30T04:45:19.778Z,40.8
2018-06-30T04:46:19.587Z,40.61
2018-06-30T04:47:19.614Z,40.51
2018-06-30T04:48:19.630Z,40.7
2018-06-30T04:49:19.708Z,40.7
2018-06-30T04:50:19.412Z,40.89
2018-06-30T04:51:19.699Z,40.99
2018-06-30T04:52:19.458Z,40.99
2018-06-30T04:53:19.751Z,40.7
2018-06-30T04:54:19.771Z,40.99
2018-06-30T04:55:19.794Z,41.08
2018-06-30T04:56:19.551Z,40.89
2018-06-30T04:57:19.833Z,40.89
2018-06-30T04:58:19.859Z,40.99
2018-06-30T04:59:19.886Z,41.08
2018-06-30T05:00:19.905Z,40.89
2018-06-30T05:01:19.924Z,40.99
2018-06-30T05:02:19.956Z,40.99
2018-06-30T05:03:19.972Z,41.18
2018-06-30T05:04:20.046Z,40.89
2018-06-30T05:05:19.750Z,41.18
2018-06-30T05:06:20.043Z,41.18
2018-06-30T05:07:20.062Z,41.28
2018-06-30T05:08:20.092Z,41.28
2018-06-30T05:09:19.839Z,41.28
2018-06-30T05:10:20.132Z,40.89
2018-06-30T05:11:20.157Z,40.8
2018-06-30T05:12:19.910Z,40.89
2018-06-30T05:13:19.931Z,41.28
2018-06-30T05:14:20.222Z,41.18
2018-06-30T05:15:20.248Z,41.28
2018-06-30T05:16:20.271Z,41.18
2018-06-30T05:17:20.290Z,41.28
2018-06-30T05:18:20.309Z,41.08
2018-06-30T05:19:20.336Z,41.28
2018-06-30T05:20:20.366Z,41.08
2018-06-30T05:21:20.110Z,41.08
2018-06-30T05:22:20.399Z,41.08
2018-06-30T05:23:20.425Z,41.18
2018-06-30T05:24:20.447Z,41.08
2018-06-30T05:25:20.204Z,41.08
2018-06-30T05:26:20.226Z,41.08
2018-06-30T05:27:20.550Z,41.08
2018-06-30T05:28:20.536Z,40.99
2018-06-30T05:29:20.561Z,41.08
2018-06-30T05:30:20.317Z,41.18
2018-06-30T05:31:20.604Z,41.28
2018-06-30T05:32:20.632Z,41.18
2018-06-30T05:33:20.813Z,41.28
2018-06-30T05:34:20.742Z,41.47
2018-06-30T05:35:20.710Z,41.38
2018-06-30T05:36:20.725Z,41.28
2018-06-30T05:37:20.474Z,41.18
2018-06-30T05:38:20.775Z,41.86
2018-06-30T05:39:20.517Z,41.66
2018-06-30T05:40:20.812Z,41.86
2018-06-30T05:41:20.975Z,41.76
2018-06-30T05:42:20.856Z,41.47
2018-06-30T05:43:20.872Z,41.08
2018-06-30T05:44:20.899Z,41.18
2018-06-30T05:45:20.657Z,41.08
2018-06-30T05:46:20.947Z,41.47
2018-06-30T05:47:20.964Z,40.99
2018-06-30T05:48:20.987Z,41.08
2018-06-30T05:49:21.019Z,41.08
2018-06-30T05:50:21.034Z,41.08
2018-06-30T05:51:21.054Z,41.18
2018-06-30T05:52:21.080Z,41.18
2018-06-30T05:53:21.306Z,40.89
2018-06-30T05:54:21.125Z,41.08
2018-06-30T05:55:21.149Z,41.16
2018-06-30T05:56:21.165Z,41.66
2018-06-30T05:57:21.190Z,41.76
2018-06-30T05:58:21.213Z,41.56
2018-06-30T05:59:21.297Z,41.76
2018-06-30T06:00:21.262Z,41.76
2018-06-30T06:01:21.281Z,41.47
2018-06-30T06:02:21.304Z,41.56
2018-06-30T06:03:21.345Z,41.86
2018-06-30T06:04:21.349Z,41.86
2018-06-30T06:05:21.371Z,41.86
2018-06-30T06:06:21.393Z,41.86
2018-06-30T06:07:21.421Z,42.05
2018-06-30T06:08:21.774Z,42.14
2018-06-30T06:09:21.789Z,41.86
2018-06-30T06:10:22.012Z,41.66
2018-06-30T06:11:21.236Z,41.76
2018-06-30T06:12:21.524Z,40.89
2018-06-30T06:13:21.551Z,41.86
2018-06-30T06:14:21.573Z,41.95
2018-06-30T06:15:22.156Z,41.76
2018-06-30T06:16:21.440Z,41.86
2018-06-30T06:17:21.622Z,41.08
2018-06-30T06:18:21.993Z,41.08
2018-06-30T06:19:21.685Z,41.18
2018-06-30T06:20:21.705Z,41.08
2018-06-30T06:21:21.728Z,41.18
2018-06-30T06:22:21.749Z,41.08
2018-06-30T06:23:21.772Z,40.8
2018-06-30T06:24:21.793Z,40.51
2018-06-30T06:25:21.817Z,40.8
2018-06-30T06:26:21.846Z,40.89
2018-06-30T06:27:21.594Z,40.99
2018-06-30T06:28:21.883Z,40.8
2018-06-30T06:29:21.905Z,40.51
2018-06-30T06:30:21.664Z,40.8
2018-06-30T06:31:21.946Z,40.51
2018-06-30T06:32:21.708Z,40.51
2018-06-30T06:33:21.999Z,40.41
2018-06-30T06:34:22.023Z,40.41
2018-06-30T06:35:21.941Z,39.93
2018-06-30T06:36:22.060Z,40.12
2018-06-30T06:37:22.086Z,40.03
2018-06-30T06:38:22.105Z,40.03
2018-06-30T06:39:22.141Z,39.93
2018-06-30T06:40:22.150Z,39.83
2018-06-30T06:41:22.169Z,39.83
2018-06-30T06:42:22.209Z,39.64
2018-06-30T06:43:22.218Z,39.54
2018-06-30T06:44:22.241Z,39.36
2018-06-30T06:45:22.281Z,39.16
2018-06-30T06:46:22.286Z,39.16
2018-06-30T06:47:22.042Z,38.87
2018-06-30T06:48:22.334Z,38.87
2018-06-30T06:49:22.354Z,38.68
2018-06-30T06:50:22.214Z,38.68
2018-06-30T06:51:22.396Z,38.68
2018-06-30T06:52:22.425Z,38.39
2018-06-30T06:53:22.445Z,38.49
2018-06-30T06:54:22.464Z,38.87
2018-06-30T06:55:22.220Z,38.59
2018-06-30T06:56:22.256Z,38.68
2018-06-30T06:57:22.536Z,38.79
2018-06-30T06:58:22.552Z,38.49
2018-06-30T06:59:22.615Z,38.59
2018-06-30T07:00:22.598Z,38.6
2018-06-30T07:01:22.628Z,38.6
2018-06-30T07:02:22.379Z,38.7
2018-06-30T07:03:22.666Z,38.41
2018-06-30T07:04:22.693Z,38.31
2018-06-30T07:05:22.454Z,38.31
2018-06-30T07:06:22.731Z,38.41
2018-06-30T07:07:22.759Z,38.31
2018-06-30T07:08:22.783Z,37.64
2018-06-30T07:09:22.805Z,37.83
2018-06-30T07:10:22.821Z,37.74
2018-06-30T07:11:22.844Z,37.54
2018-06-30T07:12:22.870Z,36.77
2018-06-30T07:13:22.893Z,37.64
2018-06-30T07:14:22.915Z,37.16
2018-06-30T07:15:22.669Z,37.56
2018-06-30T07:16:22.960Z,37.27
2018-06-30T07:17:22.979Z,36.79
2018-06-30T07:18:23.018Z,36.79
2018-06-30T07:19:23.096Z,36.89
2018-06-30T07:20:23.058Z,36.99
2018-06-30T07:21:23.073Z,36.31
2018-06-30T07:22:22.829Z,36.89
2018-06-30T07:23:23.115Z,36.89
2018-06-30T07:24:23.143Z,36.41
2018-06-30T07:25:23.160Z,36.61
2018-06-30T07:26:23.188Z,36.81
2018-06-30T07:27:23.205Z,36.91
2018-06-30T07:28:23.233Z,36.04
2018-06-30T07:29:23.257Z,36.23
2018-06-30T07:30:23.282Z,35.56
2018-06-30T07:31:23.300Z,35.48
2018-06-30T07:32:23.320Z,35.19
2018-06-30T07:33:23.341Z,35.48
2018-06-30T07:34:23.366Z,35.1
2018-06-30T07:35:23.389Z,33.94
2018-06-30T07:36:23.415Z,33.28
2018-06-30T07:37:23.564Z,32.99
2018-06-30T07:38:23.460Z,33.09
2018-06-30T07:39:23.483Z,32.79
2018-06-30T07:40:23.506Z,32.41
2018-06-30T07:41:23.742Z,32.51
2018-06-30T07:42:23.552Z,31.75
2018-06-30T07:43:23.933Z,32.52
2018-06-30T07:44:23.328Z,31.94
2018-06-30T07:45:23.644Z,31.56
2018-06-30T07:46:23.635Z,31.56
2018-06-30T07:47:23.720Z,31.56
2018-06-30T07:48:23.683Z,31.17
2018-06-30T07:49:23.707Z,31.37
2018-06-30T07:50:23.831Z,31.46
2018-06-30T07:51:23.855Z,31.27
2018-06-30T07:52:23.773Z,31.28
2018-06-30T07:53:23.798Z,31.38
2018-06-30T07:54:23.828Z,31.48
2018-06-30T07:55:23.843Z,31.38
2018-06-30T07:56:23.888Z,31.98
2018-06-30T07:57:23.891Z,31.4
2018-06-30T07:58:23.648Z,30.91
2018-06-30T07:59:23.938Z,30.04
2018-06-30T08:00:23.962Z,29.75
2018-06-30T08:01:23.716Z,29.38
2018-06-30T08:02:24.012Z,29.19
2018-06-30T08:03:24.036Z,28.89
2018-06-30T08:04:24.049Z,28.8
2018-06-30T08:05:24.080Z,28.89
2018-06-30T08:06:24.097Z,28.8
2018-06-30T08:07:24.193Z,29.2
2018-06-30T08:08:24.145Z,29.01
2018-06-30T08:09:24.178Z,29.01
2018-06-30T08:10:24.191Z,29.01
2018-06-30T08:11:24.220Z,29.41
2018-06-30T08:12:24.239Z,29.02
2018-06-30T08:13:23.993Z,29.6
2018-06-30T08:14:24.285Z,29.22
2018-06-30T08:15:24.313Z,29.22
2018-06-30T08:16:24.065Z,28.73
2018-06-30T08:17:24.354Z,27.2
2018-06-30T08:18:24.380Z,26.81
2018-06-30T08:19:24.411Z,26.14
2018-06-30T08:20:24.158Z,25.94
2018-06-30T08:21:24.452Z,25.07
2018-06-30T08:22:24.478Z,24.98
2018-06-30T08:23:24.231Z,24.79
2018-06-30T08:24:24.521Z,24.79
2018-06-30T08:25:24.280Z,24.88
2018-06-30T08:26:24.572Z,24.88
2018-06-30T08:27:24.589Z,25.08
2018-06-30T08:28:24.354Z,25.08
2018-06-30T08:29:24.664Z,25.08
2018-06-30T08:30:24.667Z,24.98
2018-06-30T08:31:24.686Z,25.18
2018-06-30T08:32:24.712Z,25.38
2018-06-30T08:33:24.738Z,24.99
2018-06-30T08:34:24.758Z,25.09
2018-06-30T08:35:24.790Z,24.99
2018-06-30T08:36:24.626Z,25.09
2018-06-30T08:37:24.572Z,24.33
2018-06-30T08:38:24.593Z,24.23
2018-06-30T08:39:24.890Z,24.82
2018-06-30T08:40:24.907Z,25.68
2018-06-30T08:41:24.668Z,25.78
2018-06-30T08:42:24.965Z,25.89
2018-06-30T08:43:24.979Z,25.21
2018-06-30T08:44:25.000Z,24.05
2018-06-30T08:45:25.030Z,23.66
2018-06-30T08:46:25.055Z,22.99
2018-06-30T08:47:25.078Z,22.99
2018-06-30T08:48:25.105Z,23.09
2018-06-30T08:49:25.136Z,22.9
2018-06-30T08:50:25.152Z,22.99
2018-06-30T08:51:25.177Z,22.41
2018-06-30T08:52:25.198Z,22.71
2018-06-30T08:53:25.236Z,22.9
2018-06-30T08:54:25.260Z,22.8
2018-06-30T08:55:25.409Z,23.1
2018-06-30T08:56:25.033Z,22.91
2018-06-30T08:57:25.327Z,22.91
2018-06-30T08:58:25.084Z,23.59
2018-06-30T08:59:25.390Z,23.3
2018-06-30T09:00:25.402Z,23.21
2018-06-30T09:01:25.426Z,22.92
2018-06-30T09:02:25.449Z,22.72
2018-06-30T09:03:25.477Z,22.05
2018-06-30T09:04:25.503Z,21.75
2018-06-30T09:05:25.525Z,21.56
2018-06-30T09:06:25.475Z,21.47
2018-06-30T09:07:25.579Z,21.67
2018-06-30T09:08:25.603Z,21.96
2018-06-30T09:09:25.627Z,21.77
2018-06-30T09:10:25.649Z,22.45
2018-06-30T09:11:25.674Z,23.14
2018-06-30T09:12:25.440Z,22.36
2018-06-30T09:13:25.731Z,22.26
2018-06-30T09:14:25.761Z,22.16
2018-06-30T09:15:25.778Z,21.78
2018-06-30T09:16:25.807Z,21.5
2018-06-30T09:17:25.829Z,21.01
2018-06-30T09:18:25.853Z,21.01
2018-06-30T09:19:25.879Z,21.01
2018-06-30T09:20:25.918Z,20.91
2018-06-30T09:21:25.935Z,20.83
2018-06-30T09:22:25.962Z,20.24
2018-06-30T09:23:25.986Z,20.24
2018-06-30T09:24:26.012Z,19.65
2018-06-30T09:25:26.036Z,19.75
2018-06-30T09:26:26.061Z,19.65
2018-06-30T09:27:26.091Z,19.17
2018-06-30T09:28:26.114Z,19.27
2018-06-30T09:29:26.140Z,19.18
2018-06-30T09:30:25.899Z,19.07
2018-06-30T09:31:26.204Z,19.18
2018-06-30T09:32:26.223Z,19.76
2018-06-30T09:33:25.978Z,19.67
2018-06-30T09:34:26.269Z,19.57
2018-06-30T09:35:26.298Z,19.08
2018-06-30T09:36:26.058Z,19.27
2018-06-30T09:37:26.083Z,18.9
2018-06-30T09:38:26.376Z,18.6
2018-06-30T09:39:26.404Z,18.8
2018-06-30T09:40:26.431Z,18.7
2018-06-30T09:41:26.461Z,18.31
2018-06-30T09:42:26.487Z,18.41
2018-06-30T09:43:26.242Z,18.41
2018-06-30T09:44:26.669Z,18.42
2018-06-30T09:45:26.562Z,18.42
2018-06-30T09:46:26.593Z,17.83
2018-06-30T09:47:26.353Z,17.93
2018-06-30T09:48:26.647Z,17.54
2018-06-30T09:49:26.720Z,17.83
2018-06-30T09:50:26.433Z,18.04
2018-06-30T09:51:26.722Z,17.74
2018-06-30T09:52:26.797Z,18.04
2018-06-30T09:53:26.776Z,18.43
2018-06-30T09:54:26.538Z,18.72
2018-06-30T09:55:26.831Z,18.82
2018-06-30T09:56:26.591Z,18.24
2018-06-30T09:57:26.617Z,17.95
2018-06-30T09:58:26.912Z,17.76
2018-06-30T09:59:26.671Z,17.07
2018-06-30T10:00:27.057Z,17.07
2018-06-30T10:01:26.728Z,16.88
2018-06-30T10:02:27.020Z,16.98
2018-06-30T10:03:27.047Z,16.69
2018-06-30T10:04:26.808Z,16.78
2018-06-30T10:05:26.837Z,16.69
2018-06-30T10:06:26.864Z,16.59
2018-06-30T10:07:26.892Z,16.6
2018-06-30T10:08:27.186Z,16.89
2018-06-30T10:09:27.219Z,16.8
2018-06-30T10:10:27.241Z,16.8
2018-06-30T10:11:27.270Z,16.7
2018-06-30T10:12:27.091Z,16.41
2018-06-30T10:13:27.323Z,16.41
2018-06-30T10:14:27.357Z,17
2018-06-30T10:15:27.392Z,17.1
2018-06-30T10:16:27.140Z,17.19
2018-06-30T10:17:27.188Z,17.29
2018-06-30T10:18:27.461Z,17.1
2018-06-30T10:19:27.676Z,17
2018-06-30T10:20:27.526Z,16.9
2018-06-30T10:21:27.559Z,16.42
2018-06-30T10:22:27.576Z,16.71
2018-06-30T10:23:27.603Z,16.71
2018-06-30T10:24:27.634Z,16.61
2018-06-30T10:25:27.662Z,16.71
2018-06-30T10:26:27.687Z,16.61
2018-06-30T10:27:27.452Z,16.42
2018-06-30T10:28:27.742Z,16.72
2018-06-30T10:29:27.771Z,16.42
2018-06-30T10:30:27.802Z,17.02
2018-06-30T10:31:27.850Z,17.12
2018-06-30T10:32:27.604Z,16.93
2018-06-30T10:33:27.891Z,16.44
2018-06-30T10:34:27.924Z,16.44
2018-06-30T10:35:27.679Z,16.24
2018-06-30T10:36:27.972Z,16.53
2018-06-30T10:37:28.082Z,16.54
2018-06-30T10:38:28.031Z,16.44
2018-06-30T10:39:28.058Z,16.25
2018-06-30T10:40:27.827Z,16.15
2018-06-30T10:41:27.850Z,16.05
2018-06-30T10:42:28.152Z,15.95
2018-06-30T10:43:28.173Z,16.16
2018-06-30T10:44:28.004Z,16.16
2018-06-30T10:45:28.233Z,16.16
2018-06-30T10:46:27.994Z,15.96
2018-06-30T10:47:28.295Z,15.96
2018-06-30T10:48:28.323Z,16.17
2018-06-30T10:49:28.081Z,15.58
2018-06-30T10:50:28.114Z,14.99
2018-06-30T10:51:28.141Z,15.19
2018-06-30T10:52:28.446Z,15.19
2018-06-30T10:53:28.203Z,15.19
2018-06-30T10:54:28.504Z,15.09
2018-06-30T10:55:28.619Z,15.29
2018-06-30T10:56:28.560Z,15.38
2018-06-30T10:57:28.587Z,14.8
2018-06-30T10:58:28.353Z,14.7
2018-06-30T10:59:28.647Z,14.7
2018-06-30T11:00:28.832Z,14.7
2018-06-30T11:01:28.707Z,15.09
2018-06-30T11:02:28.737Z,15.09
2018-06-30T11:03:28.764Z,14.61
2018-06-30T11:04:28.794Z,14.61
2018-06-30T11:05:28.558Z,14.61
2018-06-30T11:06:28.594Z,14.51
2018-06-30T11:07:28.619Z,14.42
2018-06-30T11:08:28.912Z,14.03
2018-06-30T11:09:28.947Z,13.84
2018-06-30T11:10:29.017Z,13.34
2018-06-30T11:11:28.745Z,13.34
2018-06-30T11:12:29.031Z,13.64
2018-06-30T11:13:29.067Z,13.34
2018-06-30T11:14:28.827Z,13.54
2018-06-30T11:15:29.127Z,13.64
2018-06-30T11:16:29.157Z,13.73
2018-06-30T11:17:28.925Z,13.75
2018-06-30T11:18:28.947Z,13.84
2018-06-30T11:19:29.251Z,13.64
2018-06-30T11:20:29.013Z,13.25
2018-06-30T11:21:29.306Z,12.96
2018-06-30T11:22:29.151Z,12.57
2018-06-30T11:23:29.367Z,11.98
2018-06-30T11:24:29.396Z,11.88
2018-06-30T11:25:29.430Z,11.59
2018-06-30T11:26:29.193Z,11.49
2018-06-30T11:27:29.223Z,11.88
2018-06-30T11:28:29.524Z,11.79
2018-06-30T11:29:29.682Z,11.79
2018-06-30T11:30:29.581Z,11.79
2018-06-30T11:31:29.620Z,11.99
2018-06-30T11:32:29.643Z,11.89
2018-06-30T11:33:29.675Z,11.99
2018-06-30T11:34:29.705Z,12.18
2018-06-30T11:35:29.472Z,11.59
2018-06-30T11:36:29.814Z,11.5
2018-06-30T11:37:29.799Z,11.01
2018-06-30T11:38:29.830Z,10.52
2018-06-30T11:39:29.596Z,10.82
2018-06-30T11:40:29.679Z,10.61
2018-06-30T11:41:29.922Z,10.32
2018-06-30T11:42:29.955Z,10.52
2018-06-30T11:43:29.990Z,10.82
2018-06-30T11:44:30.022Z,10.71
2018-06-30T11:45:30.049Z,10.61
2018-06-30T11:46:30.079Z,10.23
2018-06-30T11:47:30.115Z,10.23
2018-06-30T11:48:30.141Z,10.42
2018-06-30T11:49:29.907Z,10.13
2018-06-30T11:50:30.515Z,9.93
2018-06-30T11:51:30.239Z,9.64
2018-06-30T11:52:30.266Z,9.83
2018-06-30T11:53:30.034Z,9.74
2018-06-30T11:54:30.331Z,10.03
2018-06-30T11:55:30.096Z,9.94
2018-06-30T11:56:30.395Z,9.94
2018-06-30T11:57:30.429Z,9.74
2018-06-30T11:58:30.460Z,9.84
2018-06-30T11:59:30.490Z,9.84
2018-06-30T12:00:30.537Z,9.65
2018-06-30T12:01:30.563Z,9.94
2018-06-30T12:02:30.596Z,10.04
2018-06-30T12:03:30.680Z,10.04
2018-06-30T12:04:30.651Z,10.04
2018-06-30T12:05:30.682Z,10.04
2018-06-30T12:06:30.712Z,10.04
2018-06-30T12:07:30.749Z,10.24
2018-06-30T12:08:30.781Z,10.44
2018-06-30T12:09:30.814Z,10.44
2018-06-30T12:10:30.843Z,10.44
2018-06-30T12:11:30.875Z,10.53
2018-06-30T12:12:30.905Z,10.33
2018-06-30T12:13:30.942Z,10.33
2018-06-30T12:14:30.972Z,10.73
2018-06-30T12:15:31.009Z,10.72
2018-06-30T12:16:31.042Z,10.24
2018-06-30T12:17:30.801Z,10.53
2018-06-30T12:18:31.101Z,10.33
2018-06-30T12:19:31.136Z,10.14
2018-06-30T12:20:30.900Z,9.94
2018-06-30T12:21:30.933Z,10.04
2018-06-30T12:22:31.231Z,10.04
2018-06-30T12:23:31.265Z,10.04
2018-06-30T12:24:31.298Z,10.33
2018-06-30T12:25:31.333Z,10.33
2018-06-30T12:26:31.366Z,10.24
2018-06-30T12:27:31.397Z,10.05
2018-06-30T12:28:31.425Z,9.75
2018-06-30T12:29:31.461Z,9.65
2018-06-30T12:30:31.501Z,9.75
2018-06-30T12:31:31.524Z,10.44
2018-06-30T12:32:31.559Z,10.44
2018-06-30T12:33:31.596Z,10.34
2018-06-30T12:34:31.622Z,10.44
2018-06-30T12:35:31.655Z,10.44
2018-06-30T12:36:31.422Z,10.64
2018-06-30T12:37:31.724Z,10.74
2018-06-30T12:38:31.760Z,10.84
2018-06-30T12:39:31.808Z,10.94
2018-06-30T12:40:31.823Z,10.64
2018-06-30T12:41:31.860Z,10.83
2018-06-30T12:42:31.884Z,10.44
2018-06-30T12:43:31.921Z,10.54
2018-06-30T12:44:31.950Z,10.44
2018-06-30T12:45:31.987Z,10.64
2018-06-30T12:46:32.019Z,10.54
2018-06-30T12:47:32.057Z,11.13
2018-06-30T12:48:32.085Z,10.74
2018-06-30T12:49:32.149Z,10.34
2018-06-30T12:50:31.885Z,10.24
2018-06-30T12:51:31.920Z,10.74
2018-06-30T12:52:32.214Z,10.24
2018-06-30T12:53:31.985Z,10.83
2018-06-30T12:54:32.806Z,10.44
2018-06-30T12:55:32.321Z,10.24